Tuesday, January 22, 2019, 4:30 PM EST
Back to Local

KART, Watertown International Airport

Location: Dexter, NY, United States Lat: 43.983
Local Time: 4:30 PM EST (21:30 GMT) Lon: -76.033
Time Zone: US/Eastern Elev: 324 ft

Show me the last for .
Show Decoded

2019-01-22 15:56 METAR KART 222056Z AUTO 07006KT 10SM BKN090 OVC100 M11/M16 A3054 RMK AO2 SLP359
                 T11061161 56025 $ =
2019-01-22 14:56 METAR KART 221956Z AUTO 11003KT 10SM BKN110 M09/M15 A3055 RMK AO2 SLP363
                 T10941150 $ =
2019-01-22 13:56 METAR KART 221856Z AUTO 00000KT 10SM CLR M10/M14 A3057 RMK AO2 SLP369 T11001144
                 $ =
2019-01-22 12:56 METAR KART 221756Z AUTO 17003KT 10SM CLR M11/M16 A3061 RMK AO2 SLP384 60002
                 T11111156 11111 21344 58014 $ =
2019-01-22 11:56 METAR KART 221656Z AUTO 00000KT 10SM CLR M13/M17 A3063 RMK AO2 SNB23E28 SLP389
                 P0002 T11281172 =
2019-01-22 11:42 METAR KART 221642Z AUTO VRB03KT 10SM FEW001 M13/M17 A3065 RMK AO2 SNB23E28 P0002
                 T11331172 =
2019-01-22 11:35 METAR KART 221635Z AUTO VRB04KT 2 1/2SM HZ FEW001 FEW011 M13/M18 A3065 RMK AO2
                 SNB23E28 P0002 T11331178 =
2019-01-22 11:28 METAR KART 221628Z AUTO 22005KT 1/2SM HZ FEW001 SCT011 M14/M18 A3065 RMK AO2 VIS
                 M1/4V3 SNB23E28 P0001 T11391178 =
2019-01-22 11:20 METAR KART 221620Z AUTO VRB03KT 1SM HZ VV011 M14/M18 A3065 RMK AO2 VIS 1/4V5
                 T11391183 =
2019-01-22 10:56 METAR KART 221556Z AUTO 00000KT 10SM CLR M16/M21 A3065 RMK AO2 SLP393 T11611211
                 =
2019-01-22 10:23 METAR KART 221523Z AUTO 06003KT 10SM CLR M18/M22 A3066 RMK AO2 T11781222 =
2019-01-22 10:14 METAR KART 221514Z AUTO 00000KT 2 1/2SM HZ CLR M19/M22 A3066 RMK AO2 T11891222 =
2019-01-22 09:56 METAR KART 221456Z AUTO 07003KT 9SM CLR M22/M24 A3066 RMK AO2 SLP398 T12171244
                 50005 =
2019-01-22 08:56 METAR KART 221356Z AUTO 08006KT 8SM CLR M26/M28 A3066 RMK AO2 SLP399 T12611283 =
2019-01-22 07:56 METAR KART 221256Z AUTO 11004KT 10SM CLR M34/ A3068 RMK AO2 SLP407 T1344 =
2019-01-22 06:56 METAR KART 221156Z AUTO 08007KT 9SM CLR M29/M32 A3064 RMK AO2 SLP394 I6000
                 T12941317 11283 21344 50011 $ =
2019-01-22 05:56 METAR KART 221056Z AUTO 08005KT 9SM CLR M32/M33 A3066 RMK AO2 SLP401 I1000
                 T13171333 $ =
2019-01-22 04:56 METAR KART 220956Z AUTO 10004KT 10SM CLR M32/M34 A3063 RMK AO2 SLP391 T13171339
                 $ =
2019-01-22 03:56 METAR KART 220856Z AUTO 08005KT 10SM CLR M32/M34 A3061 RMK AO2 SLP383 T13171344
                 51023 $ =
2019-01-22 02:56 METAR KART 220756Z AUTO 08003KT 10SM CLR M32/M33 A3059 RMK AO2 SLP376 T13171333
                 $ =
2019-01-22 01:56 METAR KART 220656Z AUTO 00000KT 10SM CLR M30/M32 A3056 RMK AO2 SLP367 T13001322
                 $ =
2019-01-22 00:56 METAR KART 220556Z AUTO 00000KT 10SM CLR M31/M33 A3054 RMK AO2 SLP360 T13111333
                 11167 21311 51018 $ =
2019-01-21 23:56 METAR KART 220456Z AUTO 27003KT 10SM CLR M24/M26 A3054 RMK AO2 SLP358 T12391256
                 411611250 $ =
2019-01-21 22:56 METAR KART 220356Z AUTO 00000KT 10SM CLR M23/M26 A3052 RMK AO2 SLP350 T12281261
                 $ =
2019-01-21 21:56 METAR KART 220256Z AUTO 00000KT 10SM CLR M23/M27 A3048 RMK AO2 SLP339 T12331267
                 51030 $ =
2019-01-21 20:56 METAR KART 220156Z AUTO 28006KT 10SM CLR M17/M23 A3046 RMK AO2 SLP329 T11721228
                 $ =
2019-01-21 19:56 METAR KART 220056Z AUTO 29004KT 10SM CLR M17/M24 A3043 RMK AO2 SLP319 T11721244
                 $ =
2019-01-21 18:56 METAR KART 212356Z AUTO 28008KT 10SM CLR M18/M26 A3039 RMK AO2 SLP309 T11781261
                 11161 21189 53026 $ =
2019-01-21 17:56 METAR KART 212256Z AUTO 29005KT 10SM CLR M18/M26 A3036 RMK AO2 SLP298 T11781261
                 $ =
2019-01-21 16:56 METAR KART 212156Z AUTO 25004KT 10SM CLR M17/M26 A3034 RMK AO2 SLP289 T11671261
                 $ =

Support USWX by starting your Amazon purchase here.